Time;durP1;ratioP1;P1;durP2;ratioP2;P2;SDS_P1;SDS_P2;PMS_P1;PMS_P2;Temp;Humidity;BMP_temperature;BMP_pressure;BME280_temperature;BME280_humidity;BME280_pressure;Samples;Min_cycle;Max_cycle;Signal;HPM_P1;HPM_P2
2022/10/23 00:00:37;;;;;;;5.80;3.03;;;15.10;84.00;;;;;;5013359;28;20054;-69
2022/10/23 00:03:04;;;;;;;4.30;2.65;;;15.10;84.10;;;;;;5013097;28;20105;-69
2022/10/23 00:05:29;;;;;;;3.35;2.55;;;15.10;84.00;;;;;;5011455;28;20037;-69
2022/10/23 00:07:58;;;;;;;5.65;2.88;;;15.00;84.00;;;;;;5011217;28;20029;-69
2022/10/23 00:10:25;;;;;;;4.60;2.72;;;15.00;84.10;;;;;;5012121;28;20106;-70
2022/10/23 00:12:52;;;;;;;5.85;3.20;;;14.90;84.10;;;;;;5012138;28;20054;-69
2022/10/23 00:15:20;;;;;;;4.88;2.90;;;14.90;84.30;;;;;;5011592;28;20018;-69
2022/10/23 00:17:47;;;;;;;5.75;2.75;;;14.90;84.30;;;;;;5011731;28;20033;-70
2022/10/23 00:20:13;;;;;;;3.58;2.60;;;14.90;84.30;;;;;;5011821;28;20026;-69
2022/10/23 00:22:39;;;;;;;4.22;2.78;;;14.90;84.30;;;;;;5012404;28;20046;-69
2022/10/23 00:25:07;;;;;;;4.30;2.83;;;14.90;84.30;;;;;;5011894;28;20057;-69
2022/10/23 00:27:33;;;;;;;6.00;2.80;;;14.90;84.30;;;;;;5010617;28;20014;-69
2022/10/23 00:29:58;;;;;;;7.00;2.90;;;14.90;84.30;;;;;;5011491;28;20034;-69
2022/10/23 00:32:24;;;;;;;5.43;2.67;;;14.80;84.20;;;;;;5011885;28;20022;-68
2022/10/23 00:34:49;;;;;;;4.10;2.60;;;14.80;84.20;;;;;;5011926;28;20022;-67
2022/10/23 00:37:15;;;;;;;6.03;3.00;;;14.80;84.20;;;;;;5011165;28;20061;-68
2022/10/23 00:39:41;;;;;;;4.85;2.75;;;14.80;84.30;;;;;;5011318;28;20495;-68
2022/10/23 00:42:12;;;;;;;6.50;3.63;;;14.70;84.40;;;;;;5011343;28;20105;-67
2022/10/23 00:44:41;;;;;;;4.45;3.60;;;14.70;84.50;;;;;;5011475;28;20026;-67
2022/10/23 00:47:07;;;;;;;6.32;3.58;;;14.70;84.60;;;;;;5011057;28;20030;-69
2022/10/23 00:49:32;;;;;;;5.30;2.92;;;14.70;84.60;;;;;;5011486;28;20080;-67
2022/10/23 00:52:00;;;;;;;6.32;3.80;;;14.70;84.60;;;;;;5011334;28;20045;-67
2022/10/23 00:54:31;;;;;;;6.43;3.55;;;14.60;84.60;;;;;;5011669;28;20519;-68
2022/10/23 00:57:00;;;;;;;4.63;3.20;;;14.60;84.80;;;;;;5009587;28;20022;-68
2022/10/23 00:59:26;;;;;;;4.68;3.65;;;14.60;84.90;;;;;;5010973;28;20638;-70
2022/10/23 01:01:52;;;;;;;5.90;3.50;;;14.60;84.90;;;;;;5010898;28;20034;-68
2022/10/23 01:04:18;;;;;;;5.03;3.30;;;14.60;85.00;;;;;;5010762;28;20037;-69
2022/10/23 01:06:47;;;;;;;6.82;4.40;;;14.60;85.00;;;;;;5009213;28;20022;-69
2022/10/23 01:09:27;;;;;;;4.45;3.85;;;14.60;85.10;;;;;;5010659;28;20025;-67
2022/10/23 01:12:03;;;;;;;4.95;3.58;;;14.50;85.10;;;;;;5010825;28;20022;-68
2022/10/23 01:14:55;;;;;;;6.03;3.85;;;14.60;85.10;;;;;;5011427;28;20030;-68
2022/10/23 01:17:41;;;;;;;6.80;3.55;;;14.60;85.10;;;;;;5019633;28;20717;-68
2022/10/23 01:20:19;;;;;;;7.38;3.80;;;14.60;85.20;;;;;;5010649;28;20022;-69
2022/10/23 01:22:56;;;;;;;7.32;3.28;;;14.60;85.20;;;;;;5010977;28;20018;-68
2022/10/23 01:25:54;;;;;;;5.80;3.70;;;14.60;85.10;;;;;;5010517;28;20022;-68
2022/10/23 01:28:41;;;;;;;5.93;3.55;;;14.50;85.20;;;;;;5009043;28;20040;-69
2022/10/23 01:31:12;;;;;;;5.18;3.67;;;14.50;85.20;;;;;;5010422;28;20032;-68
2022/10/23 01:33:43;;;;;;;5.87;3.60;;;14.50;85.80;;;;;;5010442;28;20022;-69
2022/10/23 01:36:14;;;;;;;5.65;3.30;;;14.50;85.20;;;;;;5008854;28;20296;-68
2022/10/23 01:38:56;;;;;;;6.57;3.60;;;14.50;85.20;;;;;;5010273;28;20030;-68
2022/10/23 01:41:31;;;;;;;5.53;3.28;;;14.50;85.20;;;;;;5010129;28;20026;-67
2022/10/23 01:44:06;;;;;;;6.40;3.47;;;14.50;85.20;;;;;;5010844;28;20026;-68
2022/10/23 01:46:34;;;;;;;5.05;3.58;;;14.50;85.20;;;;;;5010892;28;20026;-68
2022/10/23 01:49:02;;;;;;;4.25;3.65;;;14.60;85.20;;;;;;5010855;28;20033;-67
2022/10/23 01:51:30;;;;;;;5.03;3.40;;;14.60;85.10;;;;;;5010612;28;20022;-68
2022/10/23 01:53:59;;;;;;;5.85;3.55;;;14.60;85.10;;;;;;5009543;28;20049;-67
2022/10/23 01:56:31;;;;;;;4.97;3.50;;;14.50;85.00;;;;;;5010321;28;20512;-69
2022/10/23 01:59:02;;;;;;;5.25;3.58;;;14.50;85.20;;;;;;5010099;28;20022;-68
2022/10/23 02:01:29;;;;;;;5.90;3.22;;;14.50;85.20;;;;;;5010475;28;20029;-68
2022/10/23 02:03:56;;;;;;;6.60;3.55;;;14.50;85.20;;;;;;5009306;28;20121;-68
2022/10/23 02:06:22;;;;;;;4.32;3.30;;;14.50;85.10;;;;;;5010655;28;20505;-67
2022/10/23 02:08:48;;;;;;;4.53;3.25;;;14.60;85.10;;;;;;5010659;28;20058;-68
2022/10/23 02:11:16;;;;;;;6.35;3.30;;;14.50;85.00;;;;;;5010288;28;20115;-68
2022/10/23 02:13:50;;;;;;;4.55;3.00;;;14.50;85.10;;;;;;5010490;28;20060;-68
2022/10/23 02:16:35;;;;;;;4.50;3.20;;;14.50;85.10;;;;;;5010710;28;20072;-69
2022/10/23 02:19:25;;;;;;;7.60;3.58;;;14.50;85.10;;;;;;5010509;28;20543;-68
2022/10/23 02:22:03;;;;;;;4.53;2.97;;;14.50;85.00;;;;;;5009726;28;20117;-68
2022/10/23 02:24:31;;;;;;;6.05;3.75;;;14.50;85.10;;;;;;5011036;28;20099;-66
2022/10/23 02:27:01;;;;;;;4.40;3.55;;;14.50;85.10;;;;;;5010589;28;20081;-67
2022/10/23 02:29:33;;;;;;;8.70;5.28;;;14.50;85.10;;;;;;5008807;28;20034;-67
2022/10/23 02:31:59;;;;;;;5.93;4.03;;;14.40;85.20;;;;;;5010740;28;20021;-68
2022/10/23 02:34:25;;;;;;;6.85;3.80;;;14.40;85.30;;;;;;5010534;28;20029;-68
2022/10/23 02:36:50;;;;;;;6.15;4.45;;;14.40;85.40;;;;;;5011332;28;20026;-67
2022/10/23 02:39:16;;;;;;;6.63;3.88;;;14.40;85.50;;;;;;5010742;28;20554;-67
2022/10/23 02:42:03;;;;;;;4.47;3.30;;;14.30;85.60;;;;;;5011641;28;20456;-67
2022/10/23 02:44:50;;;;;;;6.35;4.90;;;14.30;85.70;;;;;;5011984;28;20157;-68
2022/10/23 02:47:57;;;;;;;5.45;4.05;;;14.30;85.80;;;;;;5012396;28;20040;-65
2022/10/23 02:50:51;;;;;;;6.95;5.18;;;14.30;86.00;;;;;;5011451;28;20029;-68
2022/10/23 02:53:35;;;;;;;7.15;4.45;;;14.20;86.10;;;;;;5011185;28;20026;-68
2022/10/23 02:56:09;;;;;;;5.93;4.57;;;14.20;86.30;;;;;;5011054;28;20033;-68
2022/10/23 02:58:48;;;;;;;10.55;5.18;;;14.20;86.50;;;;;;5012390;28;20029;-67
2022/10/23 03:01:21;;;;;;;5.93;4.18;;;14.10;86.50;;;;;;5010802;28;20033;-67
2022/10/23 03:03:54;;;;;;;7.97;4.82;;;14.10;86.70;;;;;;5011916;28;20018;-68
2022/10/23 03:06:21;;;;;;;9.35;4.40;;;14.10;86.90;;;;;;5012203;28;20153;-67
2022/10/23 03:08:58;;;;;;;8.77;5.15;;;14.10;87.00;;;;;;5012458;28;20026;-66
2022/10/23 03:11:24;;;;;;;7.65;4.22;;;14.00;87.20;;;;;;5014297;28;20028;-68
2022/10/23 03:13:49;;;;;;;6.00;4.20;;;14.00;87.30;;;;;;5014492;28;20772;-70
2022/10/23 03:16:15;;;;;;;7.03;4.30;;;14.00;87.20;;;;;;5015006;28;20038;-68
2022/10/23 03:18:40;;;;;;;7.25;4.55;;;14.00;87.20;;;;;;5015008;28;20454;-67
2022/10/23 03:21:06;;;;;;;7.78;4.72;;;14.00;87.30;;;;;;5014489;28;20037;-70
2022/10/23 03:23:32;;;;;;;6.43;4.20;;;14.00;87.40;;;;;;5014525;28;20032;-69
2022/10/23 03:25:57;;;;;;;6.88;4.60;;;14.00;87.40;;;;;;5014107;28;20033;-67
2022/10/23 03:28:23;;;;;;;8.02;4.53;;;14.00;87.50;;;;;;5014061;28;20084;-69
2022/10/23 03:30:48;;;;;;;7.03;4.00;;;14.00;87.50;;;;;;5014383;28;20022;-68
2022/10/23 03:33:14;;;;;;;6.35;4.47;;;14.10;87.70;;;;;;5012865;28;20021;-68
2022/10/23 03:35:40;;;;;;;6.47;3.90;;;14.10;87.70;;;;;;5013830;28;20022;-67
2022/10/23 03:38:05;;;;;;;7.20;4.18;;;14.00;87.70;;;;;;5013782;28;20026;-69
2022/10/23 03:40:31;;;;;;;5.40;3.50;;;14.00;87.90;;;;;;5012422;28;20026;-67
2022/10/23 03:42:56;;;;;;;5.47;4.20;;;14.10;87.90;;;;;;5012381;28;20018;-69
2022/10/23 03:45:22;;;;;;;6.68;4.18;;;14.10;87.80;;;;;;5013164;28;20157;-69
2022/10/23 03:47:49;;;;;;;5.53;3.70;;;14.10;87.70;;;;;;5012127;28;20017;-69
2022/10/23 03:50:15;;;;;;;5.88;3.83;;;14.10;87.70;;;;;;5013223;28;20022;-70
2022/10/23 03:52:40;;;;;;;6.82;3.78;;;14.10;87.70;;;;;;5012500;28;20472;-67
2022/10/23 03:55:06;;;;;;;5.68;3.70;;;14.20;87.60;;;;;;5012534;28;20032;-69
2022/10/23 03:57:32;;;;;;;5.68;3.53;;;14.20;87.50;;;;;;5012052;28;20022;-68
2022/10/23 03:59:58;;;;;;;7.55;4.70;;;14.20;88.10;;;;;;5012412;28;20033;-66
2022/10/23 04:02:23;;;;;;;6.88;4.57;;;14.20;87.40;;;;;;5013417;28;20083;-68
2022/10/23 04:04:49;;;;;;;8.25;4.13;;;14.20;87.30;;;;;;5012345;28;20026;-68
2022/10/23 04:07:14;;;;;;;7.20;4.05;;;14.20;87.40;;;;;;5012111;28;20033;-68
2022/10/23 04:09:40;;;;;;;8.50;4.75;;;14.20;87.50;;;;;;5011603;28;20037;-67
2022/10/23 04:12:06;;;;;;;8.88;4.45;;;14.10;87.70;;;;;;5011883;28;20033;-68
2022/10/23 04:14:31;;;;;;;7.85;3.88;;;14.10;88.10;;;;;;5012037;28;20088;-68
2022/10/23 04:16:57;;;;;;;5.35;3.65;;;14.10;88.10;;;;;;5012394;28;20034;-68
2022/10/23 04:19:23;;;;;;;8.32;3.80;;;14.10;88.10;;;;;;5012228;28;20029;-68
2022/10/23 04:21:48;;;;;;;7.20;3.50;;;14.10;88.20;;;;;;5011831;28;20022;-67
2022/10/23 04:24:14;;;;;;;6.78;4.57;;;14.10;88.30;;;;;;5011556;28;20105;-67
2022/10/23 04:26:39;;;;;;;8.07;4.05;;;14.10;89.20;;;;;;5011885;28;20025;-68
2022/10/23 04:29:05;;;;;;;5.65;3.97;;;14.10;88.90;;;;;;5011714;28;20084;-67
2022/10/23 04:31:30;;;;;;;6.03;4.00;;;14.10;89.10;;;;;;5011641;28;20026;-67
2022/10/23 04:33:56;;;;;;;6.03;3.80;;;14.10;89.50;;;;;;5012076;28;20064;-68
2022/10/23 04:36:21;;;;;;;8.60;4.13;;;14.10;89.60;;;;;;5011026;28;20088;-67
2022/10/23 04:38:47;;;;;;;9.20;4.35;;;14.10;89.50;;;;;;5010734;28;20062;-67
2022/10/23 04:41:12;;;;;;;6.97;4.10;;;14.20;89.50;;;;;;5011585;28;20073;-68
2022/10/23 04:43:38;;;;;;;6.40;3.72;;;14.20;89.50;;;;;;5010737;28;20029;-68
2022/10/23 04:46:04;;;;;;;7.15;4.00;;;14.30;89.40;;;;;;5011371;28;20076;-69
2022/10/23 04:48:30;;;;;;;7.63;4.50;;;14.30;89.50;;;;;;5011481;28;20057;-68
2022/10/23 04:51:01;;;;;;;9.52;4.90;;;14.30;89.80;;;;;;5010130;28;20053;-67
2022/10/23 04:53:27;;;;;;;8.10;3.95;;;14.30;89.90;;;;;;5010159;28;20037;-69
2022/10/23 04:55:55;;;;;;;7.03;4.55;;;14.30;89.80;;;;;;5009989;28;20738;-68
2022/10/23 04:58:21;;;;;;;8.40;3.95;;;14.20;90.20;;;;;;5011222;28;20469;-69
2022/10/23 05:00:47;;;;;;;7.63;4.30;;;14.20;90.00;;;;;;5011318;28;20551;-69
2022/10/23 05:03:14;;;;;;;9.50;4.22;;;14.20;90.10;;;;;;5011376;28;20022;-69
2022/10/23 05:05:40;;;;;;;6.18;4.45;;;14.20;90.40;;;;;;5010251;28;20033;-67
2022/10/23 05:08:06;;;;;;;6.65;4.10;;;14.20;90.20;;;;;;5011285;28;20030;-67
2022/10/23 05:10:32;;;;;;;7.38;4.47;;;14.20;90.20;;;;;;5012003;28;20416;-67
2022/10/23 05:12:57;;;;;;;9.02;4.65;;;14.20;90.20;;;;;;5013427;28;20085;-68
2022/10/23 05:15:23;;;;;;;6.22;4.00;;;14.20;90.30;;;;;;5013823;28;20026;-68
2022/10/23 05:17:51;;;;;;;8.43;4.50;;;14.20;90.30;;;;;;5012835;28;20056;-68
2022/10/23 05:20:21;;;;;;;8.88;4.45;;;14.20;90.30;;;;;;5012573;28;20029;-68
2022/10/23 05:22:50;;;;;;;7.68;4.43;;;14.10;90.40;;;;;;5010242;28;20384;-67
2022/10/23 05:25:15;;;;;;;6.40;4.15;;;14.20;90.50;;;;;;5011451;28;20153;-67
2022/10/23 05:27:41;;;;;;;6.85;4.10;;;14.20;90.50;;;;;;5011216;28;20025;-68
2022/10/23 05:30:07;;;;;;;8.27;4.45;;;14.10;90.50;;;;;;5010651;28;20069;-66
2022/10/23 05:32:34;;;;;;;7.32;4.63;;;14.10;90.60;;;;;;5011968;28;20021;-67
2022/10/23 05:35:05;;;;;;;9.65;4.75;;;14.10;90.60;;;;;;5011074;28;20025;-67
2022/10/23 05:37:31;;;;;;;5.70;3.60;;;14.10;90.70;;;;;;5012008;28;20122;-67
2022/10/23 05:39:57;;;;;;;9.25;4.55;;;14.10;90.80;;;;;;5012030;28;20032;-66
2022/10/23 05:42:22;;;;;;;8.07;4.10;;;14.10;90.80;;;;;;5012845;28;20029;-68
2022/10/23 05:44:48;;;;;;;7.78;4.55;;;14.20;90.80;;;;;;5011241;28;20080;-67
2022/10/23 05:47:13;;;;;;;9.73;4.90;;;14.20;90.80;;;;;;5011572;28;20026;-69
2022/10/23 05:49:39;;;;;;;7.05;4.10;;;14.20;90.80;;;;;;5009696;28;20030;-66
2022/10/23 05:52:04;;;;;;;5.53;4.22;;;14.20;90.70;;;;;;5010918;28;20034;-68
2022/10/23 05:54:30;;;;;;;6.57;4.07;;;14.30;90.70;;;;;;5010772;28;20034;-67
2022/10/23 05:56:56;;;;;;;9.40;5.18;;;14.30;90.70;;;;;;5010608;28;20066;-67
2022/10/23 05:59:22;;;;;;;9.18;4.60;;;14.30;90.70;;;;;;5010773;28;20034;-68
2022/10/23 06:01:47;;;;;;;7.72;4.20;;;14.30;91.00;;;;;;5011615;28;20026;-67
2022/10/23 06:04:13;;;;;;;8.13;4.80;;;14.30;90.80;;;;;;5010991;28;20512;-68
2022/10/23 06:06:38;;;;;;;7.93;4.90;;;14.30;90.80;;;;;;5009231;28;20030;-67
2022/10/23 06:09:04;;;;;;;8.95;5.15;;;14.30;90.70;;;;;;5010621;28;20025;-68
2022/10/23 06:11:30;;;;;;;8.38;4.95;;;14.30;90.80;;;;;;5008799;28;20424;-67
2022/10/23 06:13:55;;;;;;;6.32;4.90;;;14.30;90.80;;;;;;5010993;28;20036;-68
2022/10/23 06:16:26;;;;;;;7.82;4.38;;;14.30;90.80;;;;;;5010330;28;20229;-66
2022/10/23 06:18:52;;;;;;;9.15;5.00;;;14.40;90.70;;;;;;5011084;28;20034;-69
2022/10/23 06:21:18;;;;;;;10.02;5.30;;;14.30;90.70;;;;;;5009677;28;20026;-69
2022/10/23 06:23:45;;;;;;;8.10;5.10;;;14.30;90.80;;;;;;5011339;28;20428;-69
2022/10/23 06:26:12;;;;;;;5.95;3.38;;;14.30;90.80;;;;;;5010834;28;20048;-67
2022/10/23 06:28:38;;;;;;;11.00;5.32;;;14.40;90.80;;;;;;5009979;28;20097;-68
2022/10/23 06:31:09;;;;;;;6.45;4.82;;;14.40;90.70;;;;;;5010428;28;20110;-68
2022/10/23 06:33:35;;;;;;;12.30;5.90;;;14.40;90.70;;;;;;5010199;28;20026;-68
2022/10/23 06:36:02;;;;;;;6.30;4.50;;;14.30;90.80;;;;;;5011388;28;20439;-66
2022/10/23 06:38:28;;;;;;;11.20;5.35;;;14.40;90.80;;;;;;5010635;28;20022;-68
2022/10/23 06:40:55;;;;;;;7.85;4.43;;;14.40;90.70;;;;;;5010697;28;20571;-69
2022/10/23 06:43:20;;;;;;;10.35;5.00;;;14.40;90.80;;;;;;5010190;28;20026;-67
2022/10/23 06:45:46;;;;;;;9.48;5.10;;;14.40;90.80;;;;;;5010541;28;20132;-68
2022/10/23 06:48:12;;;;;;;7.78;4.93;;;14.40;90.80;;;;;;5014514;28;20475;-68
2022/10/23 06:50:38;;;;;;;10.23;4.85;;;14.40;90.80;;;;;;5015616;28;20026;-67
2022/10/23 06:53:05;;;;;;;6.53;4.13;;;14.40;90.80;;;;;;5014594;28;20384;-67
2022/10/23 06:55:31;;;;;;;7.97;4.47;;;14.40;90.80;;;;;;5014231;28;20421;-68
2022/10/23 06:57:57;;;;;;;7.47;3.83;;;14.50;90.80;;;;;;5014482;28;20671;-70
2022/10/23 07:00:23;;;;;;;7.50;3.85;;;14.50;90.70;;;;;;5014708;28;20033;-70
2022/10/23 07:02:50;;;;;;;7.65;4.45;;;14.50;90.60;;;;;;5014975;28;20014;-69
2022/10/23 07:05:15;;;;;;;8.68;5.05;;;14.60;90.60;;;;;;5014508;28;20520;-68
2022/10/23 07:07:41;;;;;;;7.63;4.90;;;14.50;90.50;;;;;;5014017;28;20025;-67
2022/10/23 07:10:07;;;;;;;6.75;3.63;;;14.50;90.60;;;;;;5014224;28;20745;-68
2022/10/23 07:12:33;;;;;;;9.80;4.35;;;14.60;90.60;;;;;;5014303;28;20528;-68
2022/10/23 07:14:58;;;;;;;10.57;4.60;;;14.60;90.60;;;;;;5013751;28;20076;-68
2022/10/23 07:17:24;;;;;;;6.90;4.07;;;14.60;90.50;;;;;;5013352;28;20041;-68
2022/10/23 07:19:49;;;;;;;6.88;4.50;;;14.60;90.50;;;;;;5012797;28;20068;-71
2022/10/23 07:22:15;;;;;;;7.13;4.20;;;14.70;90.50;;;;;;5012024;28;20053;-70
2022/10/23 07:24:41;;;;;;;7.53;4.18;;;14.70;90.50;;;;;;5013572;28;20029;-69
2022/10/23 07:27:06;;;;;;;7.93;4.75;;;14.70;90.50;;;;;;5013827;28;20392;-67
2022/10/23 07:29:32;;;;;;;7.28;4.18;;;14.70;90.40;;;;;;5013088;28;20034;-68
2022/10/23 07:31:59;;;;;;;11.60;4.55;;;14.70;90.40;;;;;;5013678;28;20026;-68
2022/10/23 07:34:26;;;;;;;8.68;4.25;;;14.70;90.40;;;;;;5013916;28;20046;-68
2022/10/23 07:36:53;;;;;;;8.27;4.05;;;14.70;90.70;;;;;;5012725;28;20041;-69
2022/10/23 07:39:21;;;;;;;9.60;4.88;;;14.70;90.30;;;;;;5012700;28;20026;-68
2022/10/23 07:41:46;;;;;;;5.70;3.65;;;14.80;90.30;;;;;;5012848;28;20025;-69
2022/10/23 07:44:12;;;;;;;7.72;4.00;;;14.80;90.20;;;;;;5013807;28;20654;-69
2022/10/23 07:46:38;;;;;;;8.57;4.22;;;14.80;90.20;;;;;;5014285;28;20030;-69
2022/10/23 07:49:03;;;;;;;7.15;4.07;;;14.80;90.20;;;;;;5014348;28;20026;-68
2022/10/23 07:51:29;;;;;;;9.65;4.93;;;14.90;90.20;;;;;;5013555;28;20026;-67
2022/10/23 07:53:54;;;;;;;6.47;3.67;;;14.90;90.10;;;;;;5013623;28;20018;-68
2022/10/23 07:56:23;;;;;;;6.75;3.83;;;14.90;90.10;;;;;;5013399;28;20026;-69
2022/10/23 07:58:52;;;;;;;8.38;3.45;;;15.00;90.00;;;;;;5011075;28;20038;-67
2022/10/23 08:01:26;;;;;;;7.00;3.65;;;15.00;90.00;;;;;;5011790;28;20493;-68
2022/10/23 08:03:52;;;;;;;5.85;3.53;;;15.00;89.90;;;;;;5011885;28;20017;-68
2022/10/23 08:06:17;;;;;;;5.57;3.33;;;15.10;89.90;;;;;;5010765;28;20373;-68
2022/10/23 08:08:43;;;;;;;5.95;2.63;;;15.10;89.80;;;;;;5012121;28;20089;-69
2022/10/23 08:11:11;;;;;;;6.80;3.83;;;15.10;89.60;;;;;;5012020;28;20084;-68
2022/10/23 08:13:37;;;;;;;7.15;3.80;;;15.10;89.50;;;;;;5012498;28;20113;-68
2022/10/23 08:16:03;;;;;;;5.80;3.50;;;15.10;89.50;;;;;;5014311;28;20492;-68
2022/10/23 08:18:28;;;;;;;5.38;3.33;;;15.10;89.50;;;;;;5013656;28;20062;-67
2022/10/23 08:20:59;;;;;;;7.57;3.83;;;15.20;89.60;;;;;;5012470;28;20105;-67
2022/10/23 08:23:26;;;;;;;4.18;2.60;;;15.10;89.60;;;;;;5012270;28;20032;-68
2022/10/23 08:25:57;;;;;;;6.68;3.28;;;15.20;89.60;;;;;;5006307;28;20531;-67
2022/10/23 08:28:23;;;;;;;8.63;3.60;;;15.20;89.50;;;;;;5001253;28;20030;-67
2022/10/23 08:30:48;;;;;;;6.10;3.10;;;15.20;89.40;;;;;;5000412;28;20029;-71
2022/10/23 08:33:14;;;;;;;7.72;3.70;;;15.30;89.40;;;;;;4999356;28;20021;-68
2022/10/23 08:35:39;;;;;;;7.70;3.45;;;15.30;89.30;;;;;;5001831;28;20029;-69
2022/10/23 08:38:06;;;;;;;4.97;3.25;;;15.30;89.30;;;;;;5002929;28;20044;-68
2022/10/23 08:40:31;;;;;;;7.85;4.20;;;15.30;89.20;;;;;;5000930;28;20022;-67
2022/10/23 08:43:09;;;;;;;7.18;3.85;;;15.30;89.10;;;;;;5000869;28;20029;-68
2022/10/23 08:45:46;;;;;;;6.55;3.50;;;15.30;89.20;;;;;;5001590;28;20449;-68
2022/10/23 08:48:27;;;;;;;6.38;3.55;;;15.30;89.30;;;;;;5000924;28;20094;-68
2022/10/23 08:51:00;;;;;;;8.80;4.00;;;15.30;89.30;;;;;;5001038;28;20516;-68
2022/10/23 08:53:34;;;;;;;6.80;3.38;;;15.30;89.30;;;;;;5001001;28;20039;-68
2022/10/23 08:56:18;;;;;;;6.18;3.47;;;15.40;89.30;;;;;;5001350;28;20022;-69
2022/10/23 08:59:10;;;;;;;7.97;4.18;;;15.40;89.10;;;;;;4999856;28;20022;-68
2022/10/23 09:01:39;;;;;;;7.03;3.70;;;15.40;89.10;;;;;;5000361;28;20022;-68
2022/10/23 09:04:05;;;;;;;5.78;3.55;;;15.50;89.10;;;;;;5000920;28;20026;-67
2022/10/23 09:06:48;;;;;;;7.55;3.47;;;15.50;89.10;;;;;;4998267;28;20026;-67
2022/10/23 09:09:45;;;;;;;7.38;4.22;;;15.60;88.90;;;;;;5008598;28;20018;-67
2022/10/23 09:12:19;;;;;;;10.05;4.07;;;15.60;88.80;;;;;;5020703;28;20041;-68
2022/10/23 09:15:14;;;;;;;6.35;3.58;;;15.60;88.60;;;;;;5011614;28;20088;-68
2022/10/23 09:17:42;;;;;;;5.75;3.05;;;15.70;88.60;;;;;;5011192;28;20033;-67
2022/10/23 09:20:30;;;;;;;5.72;3.33;;;15.80;88.40;;;;;;5010332;28;20033;-68
2022/10/23 09:23:06;;;;;;;7.18;3.47;;;15.80;88.20;;;;;;5011311;28;20112;-67
2022/10/23 09:25:39;;;;;;;7.15;3.47;;;15.80;88.10;;;;;;5012111;28;20091;-67
2022/10/23 09:28:05;;;;;;;6.18;3.38;;;15.90;88.00;;;;;;5011253;28;20029;-68
2022/10/23 09:30:33;;;;;;;6.82;3.70;;;15.90;87.90;;;;;;5011439;28;20100;-67
2022/10/23 09:33:00;;;;;;;8.00;4.40;;;15.80;87.80;;;;;;5011303;28;20714;-68
2022/10/23 09:35:28;;;;;;;8.57;4.13;;;15.90;87.80;;;;;;5011869;28;20056;-68
2022/10/23 09:37:54;;;;;;;5.90;3.50;;;15.80;87.80;;;;;;5011338;28;20032;-67
2022/10/23 09:40:36;;;;;;;7.57;3.88;;;15.90;88.00;;;;;;5001634;28;20604;-67
2022/10/23 09:43:16;;;;;;;7.07;3.75;;;15.90;87.80;;;;;;5007125;28;20681;-67
2022/10/23 09:45:42;;;;;;;4.97;3.22;;;16.00;87.80;;;;;;4999732;28;20022;-68
2022/10/23 09:48:10;;;;;;;6.00;3.25;;;16.00;87.60;;;;;;4998970;28;20385;-68
2022/10/23 09:50:36;;;;;;;8.02;3.63;;;16.00;87.60;;;;;;5007280;28;20029;-68
2022/10/23 09:53:02;;;;;;;6.80;3.67;;;16.00;87.50;;;;;;4995137;28;20097;-69
2022/10/23 09:55:28;;;;;;;10.20;3.85;;;16.00;87.60;;;;;;5004869;28;20022;-68
2022/10/23 09:57:54;;;;;;;7.22;4.20;;;16.10;87.50;;;;;;4999609;28;20033;-68
2022/10/23 10:00:22;;;;;;;8.15;4.10;;;16.10;87.50;;;;;;4998671;28;20022;-69
2022/10/23 10:03:00;;;;;;;7.50;3.50;;;16.20;87.50;;;;;;5005913;28;20528;-68
2022/10/23 10:05:28;;;;;;;5.65;3.40;;;16.20;87.40;;;;;;4997430;28;20515;-69
2022/10/23 10:08:01;;;;;;;5.32;2.88;;;16.20;87.30;;;;;;5000353;28;20033;-68
2022/10/23 10:10:36;;;;;;;4.70;2.95;;;16.30;87.20;;;;;;5005691;28;20030;-67
2022/10/23 10:13:21;;;;;;;8.02;3.58;;;16.30;87.00;;;;;;4997743;28;20821;-68
2022/10/23 10:15:53;;;;;;;8.00;4.00;;;16.30;86.90;;;;;;4999380;28;20148;-69
2022/10/23 10:18:30;;;;;;;;;;;16.40;86.60;;;;;;5000313;28;20109;-68
2022/10/23 10:21:22;;;;;;;5.90;3.50;;;16.40;86.50;;;;;;4998708;28;19920;-68
2022/10/23 10:24:12;;;;;;;7.03;3.17;;;16.40;86.40;;;;;;5000610;28;20072;-69
2022/10/23 10:26:46;;;;;;;6.25;3.50;;;16.40;86.40;;;;;;5007244;28;20455;-68
2022/10/23 10:29:57;;;;;;;7.28;3.60;;;16.50;86.10;;;;;;4993832;28;20018;-68
2022/10/23 10:32:42;;;;;;;6.70;3.28;;;16.50;86.00;;;;;;4995451;28;20050;-67
2022/10/23 10:35:27;;;;;;;5.90;2.85;;;16.60;86.00;;;;;;4994492;28;20022;-69
2022/10/23 10:38:11;;;;;;;7.15;3.20;;;16.70;85.90;;;;;;5000469;28;20050;-68
2022/10/23 10:41:07;;;;;;;5.63;3.72;;;16.70;85.60;;;;;;5006349;28;20599;-68
2022/10/23 10:44:06;;;;;;;6.53;3.10;;;16.80;85.30;;;;;;4997590;28;20076;-68
2022/10/23 10:47:12;;;;;;;4.07;2.88;;;16.80;85.30;;;;;;4994524;28;20029;-69
2022/10/23 10:49:41;;;;;;;6.00;3.63;;;16.80;85.00;;;;;;4998540;28;20155;-68
2022/10/23 10:52:12;;;;;;;6.32;3.10;;;16.80;84.70;;;;;;4997590;28;20511;-67
2022/10/23 10:54:55;;;;;;;7.38;3.20;;;16.80;84.80;;;;;;5006037;28;20045;-68
2022/10/23 10:57:43;;;;;;;;;;;16.90;84.60;;;;;;4996295;28;20555;-68
2022/10/23 11:00:30;;;;;;;6.07;3.58;;;16.80;84.30;;;;;;5000398;28;19972;-68
2022/10/23 11:03:21;;;;;;;5.78;3.20;;;16.80;84.30;;;;;;5006432;28;20029;-68
2022/10/23 11:05:49;;;;;;;4.75;3.45;;;16.90;84.60;;;;;;5005791;28;20034;-68
2022/10/23 11:08:41;;;;;;;5.75;3.00;;;16.90;84.40;;;;;;4996767;28;20026;-67
2022/10/23 11:11:16;;;;;;;6.70;3.40;;;16.90;84.70;;;;;;4992633;28;20033;-68
2022/10/23 11:13:43;;;;;;;5.07;3.00;;;17.00;83.90;;;;;;5001353;28;20042;-68
2022/10/23 11:16:23;;;;;;;6.15;3.15;;;17.00;83.80;;;;;;5002299;28;20113;-68
2022/10/23 11:19:04;;;;;;;5.80;3.15;;;17.20;83.70;;;;;;4993469;28;20030;-68
2022/10/23 11:21:58;;;;;;;4.53;2.60;;;17.20;83.20;;;;;;5003098;28;20030;-67
2022/10/23 11:24:52;;;;;;;5.88;3.00;;;17.20;83.10;;;;;;5002929;28;20026;-68
2022/10/23 11:27:27;;;;;;;6.85;2.80;;;17.30;82.90;;;;;;5006390;28;20034;-68
2022/10/23 11:30:22;;;;;;;5.47;3.20;;;17.30;82.70;;;;;;4999038;28;20106;-68
2022/10/23 11:33:25;;;;;;;4.97;2.78;;;17.30;82.30;;;;;;5007291;28;20026;-68
2022/10/23 11:36:05;;;;;;;5.43;3.03;;;17.40;82.40;;;;;;5002842;28;20048;-67
2022/10/23 11:38:36;;;;;;;4.75;2.78;;;17.50;82.00;;;;;;4997917;28;20034;-68
2022/10/23 11:41:05;;;;;;;4.30;2.60;;;17.50;81.90;;;;;;5009516;28;20029;-67
2022/10/23 11:43:48;;;;;;;4.97;2.83;;;17.70;81.90;;;;;;4999348;28;20026;-68
2022/10/23 11:46:35;;;;;;;5.20;2.83;;;17.70;81.40;;;;;;5000051;28;20425;-68
2022/10/23 11:49:02;;;;;;;4.72;2.60;;;17.80;81.10;;;;;;5009243;28;20572;-68
2022/10/23 11:51:35;;;;;;;5.93;3.13;;;17.80;81.00;;;;;;4999686;28;20022;-68
2022/10/23 11:54:08;;;;;;;4.43;2.40;;;17.90;80.80;;;;;;5010420;28;20014;-68
2022/10/23 11:56:35;;;;;;;6.00;2.80;;;17.90;80.80;;;;;;4995924;28;20023;-68
2022/10/23 11:59:27;;;;;;;5.75;3.17;;;17.90;80.30;;;;;;5011726;28;20018;-68
2022/10/23 12:01:54;;;;;;;;;;;18.00;80.30;;;;;;5003299;28;20113;-68
2022/10/23 12:04:25;;;;;;;5.03;2.83;;;18.00;79.70;;;;;;5006670;28;20356;-68
2022/10/23 12:06:59;;;;;;;3.67;2.20;;;18.00;79.90;;;;;;4996501;28;20038;-68
2022/10/23 12:09:30;;;;;;;6.93;2.85;;;18.20;80.00;;;;;;5009633;28;20026;-68
2022/10/23 12:12:08;;;;;;;3.70;2.35;;;18.20;79.60;;;;;;5008495;28;20050;-68
2022/10/23 12:14:39;;;;;;;5.85;2.85;;;18.40;79.60;;;;;;5008012;28;20088;-68
2022/10/23 12:17:23;;;;;;;5.05;2.42;;;18.50;79.10;;;;;;4996177;28;20036;-68
2022/10/23 12:20:18;;;;;;;6.55;2.50;;;18.60;78.90;;;;;;5003029;28;20101;-68
2022/10/23 12:22:57;;;;;;;5.57;2.78;;;18.60;78.20;;;;;;5007568;28;20030;-68
2022/10/23 12:25:33;;;;;;;5.95;2.80;;;18.60;77.80;;;;;;5004454;28;20031;-68
2022/10/23 12:28:17;;;;;;;4.03;2.60;;;18.70;78.00;;;;;;5002946;28;20152;-67
2022/10/23 12:31:13;;;;;;;8.02;3.00;;;18.70;77.90;;;;;;5008290;28;20033;-67
2022/10/23 12:33:39;;;;;;;5.85;2.60;;;18.80;77.20;;;;;;4999854;28;20026;-67
2022/10/23 12:36:31;;;;;;;4.50;2.70;;;18.80;77.30;;;;;;5000482;28;20106;-66
2022/10/23 12:38:57;;;;;;;5.40;2.70;;;18.90;77.00;;;;;;5001160;28;20041;-67
2022/10/23 12:41:28;;;;;;;5.22;2.50;;;18.90;77.20;;;;;;4998963;28;20014;-68
2022/10/23 12:43:59;;;;;;;3.40;2.08;;;19.00;77.10;;;;;;5001028;28;20018;-68
2022/10/23 12:46:33;;;;;;;3.88;2.30;;;19.00;76.90;;;;;;5000097;28;20420;-68
2022/10/23 12:49:00;;;;;;;6.28;2.90;;;19.00;77.00;;;;;;4999951;28;20032;-68
2022/10/23 12:51:29;;;;;;;5.38;2.80;;;19.00;76.70;;;;;;5001604;28;20394;-67
2022/10/23 12:53:55;;;;;;;5.35;2.50;;;19.00;76.70;;;;;;4999712;28;20030;-68
2022/10/23 12:56:21;;;;;;;4.75;2.70;;;19.00;76.80;;;;;;4994897;28;20022;-68
2022/10/23 12:58:56;;;;;;;3.90;2.30;;;19.10;76.70;;;;;;5007831;28;20033;-68
2022/10/23 13:01:26;;;;;;;4.05;2.28;;;19.10;76.70;;;;;;4997717;28;20041;-68
2022/10/23 13:03:58;;;;;;;6.60;2.50;;;19.10;76.80;;;;;;5011378;28;20036;-68
2022/10/23 13:06:24;;;;;;;5.90;2.45;;;19.10;76.70;;;;;;4997438;28;20026;-68
2022/10/23 13:08:49;;;;;;;3.35;2.30;;;19.20;76.90;;;;;;5008962;28;20467;-68